Terminal Aerodrome Forecast
Issued by NWS

Home | Current Version | Previous Version | Text Only | Print | Product List | Glossary On
Versions: 1 2 3 4 5 6 7 8 9 10 11 12 13 14 15 16 17
000
FTUS44 KLZK 221100
TAFBPK
TAF
KBPK 221121Z 2212/2312 15009KT P6SM VCSH SCT012 BKN025
      TEMPO 2212/2216 5SM -RADZ BKN012
     FM221600 17009KT P6SM VCSH BKN015 OVC025
     FM230300 27007KT P6SM SCT015 BKN025
     FM230700 26004KT P6SM SCT025 BKN250=

USA.gov is the U.S. government's official web portal to all federal, state and local government web resources and services.